EGLL/LHR METAR and TAF weather

Enter ICAO airport designator
Station Type Date Time Source
EGLL METAR 2020/07/02 18:50 UTC NOAA

EGLL 021850Z AUTO 29010KT 9999 //////CB 19/13 Q1014 NOSIG


Station Type Date Time Source
EGLL Decoded METAR 2020/07/02 18:50 UTC NOAA

London / Heathrow Airport, United Kingdom (EGLL) 51-29N 000-27W 0M
Jul 02, 2020 - 02:50 PM EDT / 2020.07.02 1850 UTC
Wind: from the WNW (290 degrees) at 12 MPH (10 KT):0
Visibility: greater than 7 mile(s):0
Weather: Cumulonimbus clouds observed
Temperature: 66 F (19 C)
Dew Point: 55 F (13 C)
Relative Humidity: 68%
Pressure (altimeter): 29.94 in. Hg (1014 hPa)
ob: EGLL 021850Z AUTO 29010KT 9999 //////CB 19/13 Q1014 NOSIG
cycle: 19

Station Type Date Time Source
EGLL TAF 2020/07/02 18:09 UTC NOAA

TAF EGLL 021657Z 0218/0324 26008KT 9999 SCT035 PROB40
TEMPO 0218/0220 6000 SHRA
TEMPO 0312/0319 22016G26KT PROB30
TEMPO 0312/0319 8000 -RA
BECMG 0319/0322 BKN012
TEMPO 0319/0324 7000 RA PROB40
TEMPO 0321/0324 4000 RADZ BKN008

Example: see airport list